Thursday, March 05, 2015
02:33 UTC
  |  Log In   |  Register Free
Airport Search:

Talladega Municipal Airport
(KASN)

Talladega Municipal Airport Diagram
No Airport Diagram Available

FAA data valid effective January 08, 2015 - March 05, 2015 (unless otherwise noted).

 
 
 
 
 
 
 
 
 
 
 
 
 
 

Current Aviation Weather for Talladega Municipal Airport (KASN)

The most recent METAR observation for KASN was updated at: 0210
METAR Summary (Translated METAR)
KASN
050155Z AUTO 18005KT 10SM BKN090 BKN120 20/18 A2991 RMK AO2 T01960180
KANB
050153Z AUTO 00000KT 10SM SCT029 BKN080 OVC120 19/18 A2991 RMK AO2 RAE44 SLP124 P0001 T01890178
(9.7 nm NE from KASN)
KGAD
050155Z 32008KT 300V010 10SM BKN090 BKN120 17/15 A2988 RMK AO1 P0001
(24.3 nm NW from KASN)
TAF Summary (Translated TAF)
KASN
(9.7 nm SW from KANB)
042131Z 0422/0518 21010G18KT 6SM SHRA SCT020 BKN040 FM050700 34007KT 4SM -RA OVC007 FM051500 34014KT 2SM -FZRA BR OVC007
KANB
042131Z 0422/0518 22010G18KT 6SM SHRA SCT020 OVC040 FM050700 34007KT 4SM -RA OVC007 FM051500 34014KT 2SM -FZRA BR OVC007
  Airport Weather Conditions for KASN

 Current Weather at ASN
67° F
Mostly Cloudy
South winds at 5.8 mph
ASN NOAA Radar

Pressure: 29.91 in
Humidity: 91%
Wind: South at 5.8 MPH (5 KT)
Dew Point: 64.4°F
Visibility: 10.00 mi


Airport Weather Forecast for KASN

Translated METAR and TAF for KANB
Translated METAR for KANB (0232 UTC 05 March 2015)
found at http://aviationweather.gov/adds/metars/
 
METAR text: KANB 050153Z AUTO 00000KT 10SM SCT029 BKN080 OVC120 19/18 A2991 RMK AO2 RAE44 SLP124 P0001 T01890178
Conditions at: KANB (ANNISTON , AL, US) observed 0153 UTC 05 March 2015
Temperature: 18.9°C (66°F)
Dewpoint: 17.8°C (64°F) [RH = 93%]
Pressure (altimeter): 29.91 inches Hg (1013.0 mb)
[Sea-level pressure: 1012.4 mb]
Winds: calm
Visibility: 10 or more miles (16+ km)
Ceiling: 8000 feet AGL
Clouds: scattered clouds at 2900 feet AGL
broken clouds at 8000 feet AGL
overcast cloud deck at 12000 feet AGL
Weather: automated observation with no human augmentation;
there may or may not be significant weather present at this time
Translated TAF for KANB
Forecast for: KANB (ANNISTON , AL, US)
TAF Text: KANB 042323Z 0500/0524 22009KT P6SM VCSH SCT020 OVC040
Forecast period: 0000 to 0400 UTC 05 March 2015
Forecast type: FROM: standard forecast or significant change
Winds: from the SW (220 degrees) at 10 MPH (9 knots; 4.7 m/s)
Visibility: 6 or more miles (10+ km)
Ceiling: 4000 feet AGL
Clouds: scattered clouds at 2000 feet AGL
overcast cloud deck at 4000 feet AGL
Weather: VCSH  (showers in vicinity)
TAF Text: FM050400 34007KT 4SM -RA OVC015
Forecast period: 0400 to 0800 UTC 05 March 2015
Forecast type: FROM: standard forecast or significant change
Winds: from the NNW (340 degrees) at 8 MPH (7 knots; 3.6 m/s)
Visibility: 4 miles (6 km)
Ceiling: 1500 feet AGL
Clouds: overcast cloud deck at 1500 feet AGL
Weather: -RA  (light rain)
TAF Text: FM050800 34006KT 4SM -RA OVC007
Forecast period: 0800 to 2200 UTC 05 March 2015
Forecast type: FROM: standard forecast or significant change
Winds: from the NNW (340 degrees) at 7 MPH (6 knots; 3.1 m/s)
Visibility: 4 miles (6 km)
Ceiling: 700 feet AGL
Clouds: overcast cloud deck at 700 feet AGL
Weather: -RA  (light rain)
TAF Text: FM052200 35009KT P6SM OVC015
Forecast period: 2200 UTC 05 March 2015 to 0000 UTC 06 March 2015
Forecast type: FROM: standard forecast or significant change
Winds: from the N (350 degrees) at 10 MPH (9 knots; 4.7 m/s)
Visibility: 6 or more miles (10+ km)
Ceiling: 1500 feet AGL
Clouds: overcast cloud deck at 1500 feet AGL
Weather: no significant weather forecast for this period

Find All Airport Services Find A Hotel Find A Rental Car Find A Golf Course Find A Restaurant $100 Hamburger



FBO's on the Field
FBO Company Facility Photos Services Transportation Aviation Fuel Prices: Prices include tax
Catering Weather Repair Courtesy Rental Type 100LL JetA JetA+ MOGAS 8087
 
Talladega Municipal

This FBO has not yet been rated
FS:Phillips 66
Last Updated: Mar-03
Login to update fuel prices
SS:
Contact Talladega MunicipalMore FBO Information
 
Add another FBO Facility Photos Catering Weather Repair Courtesy Rental Type 100LL JetA JetA+ MOGAS 8087
Services Transportation Aviation Fuel Prices: Prices include tax


model-print
model-print
model-print
model-print